sensor_id;sensor_type;location;lat;lon;timestamp;P1;durP1;ratioP1;P2;durP2;ratioP2
17949;SDS011;9100;48.700;9.316;2022-12-07T00:00:32;4.7;;;4.2;;
17949;SDS011;9100;48.700;9.316;2022-12-07T00:00:43;6.1;;;4.4;;
17949;SDS011;9100;48.700;9.316;2022-12-07T00:01:33;6.1;;;4.4;;
17949;SDS011;9100;48.700;9.316;2022-12-07T00:02:32;6.1;;;4.4;;
17949;SDS011;9100;48.700;9.316;2022-12-07T00:03:32;6.1;;;4.4;;
17949;SDS011;9100;48.700;9.316;2022-12-07T00:04:32;6.1;;;4.4;;
17949;SDS011;9100;48.700;9.316;2022-12-07T00:05:32;6.1;;;4.4;;
17949;SDS011;9100;48.700;9.316;2022-12-07T00:05:43;3.8;;;3.6;;
17949;SDS011;9100;48.700;9.316;2022-12-07T00:06:32;3.8;;;3.6;;
17949;SDS011;9100;48.700;9.316;2022-12-07T00:07:32;3.8;;;3.6;;
17949;SDS011;9100;48.700;9.316;2022-12-07T00:08:32;3.8;;;3.6;;
17949;SDS011;9100;48.700;9.316;2022-12-07T00:09:32;3.8;;;3.6;;
17949;SDS011;9100;48.700;9.316;2022-12-07T00:10:32;3.8;;;3.6;;
17949;SDS011;9100;48.700;9.316;2022-12-07T00:10:43;4.9;;;4.5;;
17949;SDS011;9100;48.700;9.316;2022-12-07T00:11:32;4.9;;;4.5;;
17949;SDS011;9100;48.700;9.316;2022-12-07T00:12:32;4.9;;;4.5;;
17949;SDS011;9100;48.700;9.316;2022-12-07T00:13:32;4.9;;;4.5;;
17949;SDS011;9100;48.700;9.316;2022-12-07T00:14:32;4.9;;;4.5;;
17949;SDS011;9100;48.700;9.316;2022-12-07T00:15:33;4.9;;;4.5;;
17949;SDS011;9100;48.700;9.316;2022-12-07T00:15:43;4.6;;;4.2;;
17949;SDS011;9100;48.700;9.316;2022-12-07T00:16:33;4.6;;;4.2;;
17949;SDS011;9100;48.700;9.316;2022-12-07T00:17:32;4.6;;;4.2;;
17949;SDS011;9100;48.700;9.316;2022-12-07T00:18:32;4.6;;;4.2;;
17949;SDS011;9100;48.700;9.316;2022-12-07T00:19:32;4.6;;;4.2;;
17949;SDS011;9100;48.700;9.316;2022-12-07T00:20:32;4.6;;;4.2;;
17949;SDS011;9100;48.700;9.316;2022-12-07T00:20:43;4.4;;;4.1;;
17949;SDS011;9100;48.700;9.316;2022-12-07T00:21:32;4.4;;;4.1;;
17949;SDS011;9100;48.700;9.316;2022-12-07T00:22:32;4.4;;;4.1;;
17949;SDS011;9100;48.700;9.316;2022-12-07T00:23:32;4.4;;;4.1;;
17949;SDS011;9100;48.700;9.316;2022-12-07T00:24:32;4.4;;;4.1;;
17949;SDS011;9100;48.700;9.316;2022-12-07T00:25:32;4.4;;;4.1;;
17949;SDS011;9100;48.700;9.316;2022-12-07T00:25:43;3.8;;;3.6;;
17949;SDS011;9100;48.700;9.316;2022-12-07T00:26:33;3.8;;;3.6;;
17949;SDS011;9100;48.700;9.316;2022-12-07T00:27:32;3.8;;;3.6;;
17949;SDS011;9100;48.700;9.316;2022-12-07T00:28:32;3.8;;;3.6;;
17949;SDS011;9100;48.700;9.316;2022-12-07T00:29:32;3.8;;;3.6;;
17949;SDS011;9100;48.700;9.316;2022-12-07T00:30:32;3.8;;;3.6;;
17949;SDS011;9100;48.700;9.316;2022-12-07T00:30:43;3.9;;;3.7;;
17949;SDS011;9100;48.700;9.316;2022-12-07T00:31:32;3.9;;;3.7;;
17949;SDS011;9100;48.700;9.316;2022-12-07T00:32:32;3.9;;;3.7;;
17949;SDS011;9100;48.700;9.316;2022-12-07T00:33:32;3.9;;;3.7;;
17949;SDS011;9100;48.700;9.316;2022-12-07T00:34:32;3.9;;;3.7;;
17949;SDS011;9100;48.700;9.316;2022-12-07T00:35:32;3.9;;;3.7;;
17949;SDS011;9100;48.700;9.316;2022-12-07T00:35:43;4.7;;;4.4;;
17949;SDS011;9100;48.700;9.316;2022-12-07T00:36:32;4.7;;;4.4;;
17949;SDS011;9100;48.700;9.316;2022-12-07T00:37:32;4.7;;;4.4;;
17949;SDS011;9100;48.700;9.316;2022-12-07T00:38:32;4.7;;;4.4;;
17949;SDS011;9100;48.700;9.316;2022-12-07T00:39:32;4.7;;;4.4;;
17949;SDS011;9100;48.700;9.316;2022-12-07T00:40:32;4.7;;;4.4;;
17949;SDS011;9100;48.700;9.316;2022-12-07T00:40:43;4.7;;;4.3;;
17949;SDS011;9100;48.700;9.316;2022-12-07T00:41:32;4.7;;;4.3;;
17949;SDS011;9100;48.700;9.316;2022-12-07T00:42:32;4.7;;;4.3;;
17949;SDS011;9100;48.700;9.316;2022-12-07T00:43:32;4.7;;;4.3;;
17949;SDS011;9100;48.700;9.316;2022-12-07T00:44:32;4.7;;;4.3;;
17949;SDS011;9100;48.700;9.316;2022-12-07T00:45:32;4.7;;;4.3;;
17949;SDS011;9100;48.700;9.316;2022-12-07T00:45:43;4.6;;;4.3;;
17949;SDS011;9100;48.700;9.316;2022-12-07T00:46:32;4.6;;;4.3;;
17949;SDS011;9100;48.700;9.316;2022-12-07T00:47:32;4.6;;;4.3;;
17949;SDS011;9100;48.700;9.316;2022-12-07T00:48:32;4.6;;;4.3;;
17949;SDS011;9100;48.700;9.316;2022-12-07T00:49:32;4.6;;;4.3;;
17949;SDS011;9100;48.700;9.316;2022-12-07T00:50:32;4.6;;;4.3;;
17949;SDS011;9100;48.700;9.316;2022-12-07T00:50:43;5.4;;;5;;
17949;SDS011;9100;48.700;9.316;2022-12-07T00:51:32;5.4;;;5;;
17949;SDS011;9100;48.700;9.316;2022-12-07T00:52:32;5.4;;;5;;
17949;SDS011;9100;48.700;9.316;2022-12-07T00:53:33;5.4;;;5;;
17949;SDS011;9100;48.700;9.316;2022-12-07T00:54:32;5.4;;;5;;
17949;SDS011;9100;48.700;9.316;2022-12-07T00:55:32;5.4;;;5;;
17949;SDS011;9100;48.700;9.316;2022-12-07T00:55:43;4.8;;;4.5;;
17949;SDS011;9100;48.700;9.316;2022-12-07T00:56:32;4.8;;;4.5;;
17949;SDS011;9100;48.700;9.316;2022-12-07T00:57:32;4.8;;;4.5;;
17949;SDS011;9100;48.700;9.316;2022-12-07T00:58:32;4.8;;;4.5;;
17949;SDS011;9100;48.700;9.316;2022-12-07T00:59:32;4.8;;;4.5;;
17949;SDS011;9100;48.700;9.316;2022-12-07T01:00:32;4.8;;;4.5;;
17949;SDS011;9100;48.700;9.316;2022-12-07T01:00:43;5.2;;;4.7;;
17949;SDS011;9100;48.700;9.316;2022-12-07T01:01:32;5.2;;;4.7;;
17949;SDS011;9100;48.700;9.316;2022-12-07T01:02:32;5.2;;;4.7;;
17949;SDS011;9100;48.700;9.316;2022-12-07T01:03:32;5.2;;;4.7;;
17949;SDS011;9100;48.700;9.316;2022-12-07T01:04:33;5.2;;;4.7;;
17949;SDS011;9100;48.700;9.316;2022-12-07T01:05:32;5.2;;;4.7;;
17949;SDS011;9100;48.700;9.316;2022-12-07T01:05:48;5.5;;;5.1;;
17949;SDS011;9100;48.700;9.316;2022-12-07T01:06:32;5.5;;;5.1;;
17949;SDS011;9100;48.700;9.316;2022-12-07T01:07:32;5.5;;;5.1;;
17949;SDS011;9100;48.700;9.316;2022-12-07T01:08:32;5.5;;;5.1;;
17949;SDS011;9100;48.700;9.316;2022-12-07T01:09:32;5.5;;;5.1;;
17949;SDS011;9100;48.700;9.316;2022-12-07T01:10:32;5.5;;;5.1;;
17949;SDS011;9100;48.700;9.316;2022-12-07T01:10:43;5.5;;;5.1;;
17949;SDS011;9100;48.700;9.316;2022-12-07T01:11:32;5.5;;;5.1;;
17949;SDS011;9100;48.700;9.316;2022-12-07T01:12:32;5.5;;;5.1;;
17949;SDS011;9100;48.700;9.316;2022-12-07T01:13:32;5.5;;;5.1;;
17949;SDS011;9100;48.700;9.316;2022-12-07T01:14:32;5.5;;;5.1;;
17949;SDS011;9100;48.700;9.316;2022-12-07T01:15:32;5.5;;;5.1;;
17949;SDS011;9100;48.700;9.316;2022-12-07T01:15:43;5.9;;;5.4;;
17949;SDS011;9100;48.700;9.316;2022-12-07T01:16:32;5.9;;;5.4;;
17949;SDS011;9100;48.700;9.316;2022-12-07T01:17:32;5.9;;;5.4;;
17949;SDS011;9100;48.700;9.316;2022-12-07T01:18:33;5.9;;;5.4;;
17949;SDS011;9100;48.700;9.316;2022-12-07T01:19:32;5.9;;;5.4;;
17949;SDS011;9100;48.700;9.316;2022-12-07T01:20:32;5.9;;;5.4;;
17949;SDS011;9100;48.700;9.316;2022-12-07T01:20:43;5.6;;;5.2;;
17949;SDS011;9100;48.700;9.316;2022-12-07T01:21:32;5.6;;;5.2;;
17949;SDS011;9100;48.700;9.316;2022-12-07T01:22:35;5.6;;;5.2;;
17949;SDS011;9100;48.700;9.316;2022-12-07T01:23:33;5.6;;;5.2;;
17949;SDS011;9100;48.700;9.316;2022-12-07T01:24:32;5.6;;;5.2;;
17949;SDS011;9100;48.700;9.316;2022-12-07T01:25:32;5.6;;;5.2;;
17949;SDS011;9100;48.700;9.316;2022-12-07T01:25:43;6.2;;;5.3;;
17949;SDS011;9100;48.700;9.316;2022-12-07T01:26:32;6.2;;;5.3;;
17949;SDS011;9100;48.700;9.316;2022-12-07T01:27:32;6.2;;;5.3;;
17949;SDS011;9100;48.700;9.316;2022-12-07T01:28:32;6.2;;;5.3;;
17949;SDS011;9100;48.700;9.316;2022-12-07T01:29:32;6.2;;;5.3;;
17949;SDS011;9100;48.700;9.316;2022-12-07T01:30:32;6.2;;;5.3;;
17949;SDS011;9100;48.700;9.316;2022-12-07T01:30:43;5.7;;;5.2;;
17949;SDS011;9100;48.700;9.316;2022-12-07T01:31:32;5.7;;;5.2;;
17949;SDS011;9100;48.700;9.316;2022-12-07T01:32:32;5.7;;;5.2;;
17949;SDS011;9100;48.700;9.316;2022-12-07T01:33:33;5.7;;;5.2;;
17949;SDS011;9100;48.700;9.316;2022-12-07T01:34:32;5.7;;;5.2;;
17949;SDS011;9100;48.700;9.316;2022-12-07T01:35:33;5.7;;;5.2;;
17949;SDS011;9100;48.700;9.316;2022-12-07T01:35:43;6;;;5.5;;
17949;SDS011;9100;48.700;9.316;2022-12-07T01:36:33;6;;;5.5;;
17949;SDS011;9100;48.700;9.316;2022-12-07T01:37:33;6;;;5.5;;
17949;SDS011;9100;48.700;9.316;2022-12-07T01:38:32;6;;;5.5;;
17949;SDS011;9100;48.700;9.316;2022-12-07T01:39:32;6;;;5.5;;
17949;SDS011;9100;48.700;9.316;2022-12-07T01:40:32;6;;;5.5;;
17949;SDS011;9100;48.700;9.316;2022-12-07T01:40:43;5.4;;;4.9;;
17949;SDS011;9100;48.700;9.316;2022-12-07T01:41:33;5.4;;;4.9;;
17949;SDS011;9100;48.700;9.316;2022-12-07T01:42:32;5.4;;;4.9;;
17949;SDS011;9100;48.700;9.316;2022-12-07T01:43:32;5.4;;;4.9;;
17949;SDS011;9100;48.700;9.316;2022-12-07T01:44:32;5.4;;;4.9;;
17949;SDS011;9100;48.700;9.316;2022-12-07T01:45:37;5.4;;;4.9;;
17949;SDS011;9100;48.700;9.316;2022-12-07T01:45:43;6.2;;;5.6;;
17949;SDS011;9100;48.700;9.316;2022-12-07T01:46:32;6.2;;;5.6;;
17949;SDS011;9100;48.700;9.316;2022-12-07T01:47:32;6.2;;;5.6;;
17949;SDS011;9100;48.700;9.316;2022-12-07T01:48:32;6.2;;;5.6;;
17949;SDS011;9100;48.700;9.316;2022-12-07T01:49:33;6.2;;;5.6;;
17949;SDS011;9100;48.700;9.316;2022-12-07T01:50:32;6.2;;;5.6;;
17949;SDS011;9100;48.700;9.316;2022-12-07T01:50:43;7.1;;;5.8;;
17949;SDS011;9100;48.700;9.316;2022-12-07T01:51:32;7.1;;;5.8;;
17949;SDS011;9100;48.700;9.316;2022-12-07T01:52:32;7.1;;;5.8;;
17949;SDS011;9100;48.700;9.316;2022-12-07T01:53:32;7.1;;;5.8;;
17949;SDS011;9100;48.700;9.316;2022-12-07T01:54:32;7.1;;;5.8;;
17949;SDS011;9100;48.700;9.316;2022-12-07T01:55:32;7.1;;;5.8;;
17949;SDS011;9100;48.700;9.316;2022-12-07T01:55:44;5.2;;;4.8;;
17949;SDS011;9100;48.700;9.316;2022-12-07T01:56:32;5.2;;;4.8;;
17949;SDS011;9100;48.700;9.316;2022-12-07T01:57:32;5.2;;;4.8;;
17949;SDS011;9100;48.700;9.316;2022-12-07T01:58:32;5.2;;;4.8;;
17949;SDS011;9100;48.700;9.316;2022-12-07T01:59:32;5.2;;;4.8;;
17949;SDS011;9100;48.700;9.316;2022-12-07T02:00:32;5.2;;;4.8;;
17949;SDS011;9100;48.700;9.316;2022-12-07T02:00:43;5.8;;;5.3;;
17949;SDS011;9100;48.700;9.316;2022-12-07T02:01:32;5.8;;;5.3;;
17949;SDS011;9100;48.700;9.316;2022-12-07T02:02:33;5.8;;;5.3;;
17949;SDS011;9100;48.700;9.316;2022-12-07T02:03:32;5.8;;;5.3;;
17949;SDS011;9100;48.700;9.316;2022-12-07T02:04:32;5.8;;;5.3;;
17949;SDS011;9100;48.700;9.316;2022-12-07T02:05:32;5.8;;;5.3;;
17949;SDS011;9100;48.700;9.316;2022-12-07T02:05:43;6.9;;;6.3;;
17949;SDS011;9100;48.700;9.316;2022-12-07T02:06:32;6.9;;;6.3;;
17949;SDS011;9100;48.700;9.316;2022-12-07T02:07:32;6.9;;;6.3;;
17949;SDS011;9100;48.700;9.316;2022-12-07T02:08:32;6.9;;;6.3;;
17949;SDS011;9100;48.700;9.316;2022-12-07T02:09:32;6.9;;;6.3;;
17949;SDS011;9100;48.700;9.316;2022-12-07T02:10:32;6.9;;;6.3;;
17949;SDS011;9100;48.700;9.316;2022-12-07T02:10:43;7.2;;;6.5;;
17949;SDS011;9100;48.700;9.316;2022-12-07T02:11:32;7.2;;;6.5;;
17949;SDS011;9100;48.700;9.316;2022-12-07T02:12:32;7.2;;;6.5;;
17949;SDS011;9100;48.700;9.316;2022-12-07T02:13:32;7.2;;;6.5;;
17949;SDS011;9100;48.700;9.316;2022-12-07T02:14:32;7.2;;;6.5;;
17949;SDS011;9100;48.700;9.316;2022-12-07T02:15:34;7.2;;;6.5;;
17949;SDS011;9100;48.700;9.316;2022-12-07T02:15:46;8.2;;;7;;
17949;SDS011;9100;48.700;9.316;2022-12-07T02:16:34;8.2;;;7;;
17949;SDS011;9100;48.700;9.316;2022-12-07T02:17:34;8.2;;;7;;
17949;SDS011;9100;48.700;9.316;2022-12-07T02:18:36;8.2;;;7;;
17949;SDS011;9100;48.700;9.316;2022-12-07T02:19:47;8.2;;;7;;
17949;SDS011;9100;48.700;9.316;2022-12-07T02:20:32;8.2;;;7;;
17949;SDS011;9100;48.700;9.316;2022-12-07T02:20:44;7.6;;;6.8;;
17949;SDS011;9100;48.700;9.316;2022-12-07T02:21:34;7.6;;;6.8;;
17949;SDS011;9100;48.700;9.316;2022-12-07T02:22:37;7.6;;;6.8;;
17949;SDS011;9100;48.700;9.316;2022-12-07T02:23:38;7.6;;;6.8;;
17949;SDS011;9100;48.700;9.316;2022-12-07T02:24:37;7.6;;;6.8;;
17949;SDS011;9100;48.700;9.316;2022-12-07T02:25:35;7.6;;;6.8;;
17949;SDS011;9100;48.700;9.316;2022-12-07T02:25:51;7.8;;;7.1;;
17949;SDS011;9100;48.700;9.316;2022-12-07T02:27:09;7.8;;;7.1;;
17949;SDS011;9100;48.700;9.316;2022-12-07T02:27:36;7.8;;;7.1;;
17949;SDS011;9100;48.700;9.316;2022-12-07T02:28:33;7.8;;;7.1;;
17949;SDS011;9100;48.700;9.316;2022-12-07T02:29:33;7.8;;;7.1;;
17949;SDS011;9100;48.700;9.316;2022-12-07T02:30:32;7.8;;;7.1;;
17949;SDS011;9100;48.700;9.316;2022-12-07T02:30:44;7.2;;;6.6;;
17949;SDS011;9100;48.700;9.316;2022-12-07T02:31:32;7.2;;;6.6;;
17949;SDS011;9100;48.700;9.316;2022-12-07T02:32:35;7.2;;;6.6;;
17949;SDS011;9100;48.700;9.316;2022-12-07T02:33:33;7.2;;;6.6;;
17949;SDS011;9100;48.700;9.316;2022-12-07T02:34:34;7.2;;;6.6;;
17949;SDS011;9100;48.700;9.316;2022-12-07T02:35:32;7.2;;;6.6;;
17949;SDS011;9100;48.700;9.316;2022-12-07T02:35:43;7.4;;;6.7;;
17949;SDS011;9100;48.700;9.316;2022-12-07T02:36:32;7.4;;;6.7;;
17949;SDS011;9100;48.700;9.316;2022-12-07T02:37:33;7.4;;;6.7;;
17949;SDS011;9100;48.700;9.316;2022-12-07T02:38:34;7.4;;;6.7;;
17949;SDS011;9100;48.700;9.316;2022-12-07T02:39:33;7.4;;;6.7;;
17949;SDS011;9100;48.700;9.316;2022-12-07T02:40:33;7.4;;;6.7;;
17949;SDS011;9100;48.700;9.316;2022-12-07T02:40:44;7.1;;;6.4;;
17949;SDS011;9100;48.700;9.316;2022-12-07T02:41:33;7.1;;;6.4;;
17949;SDS011;9100;48.700;9.316;2022-12-07T02:42:37;7.1;;;6.4;;
17949;SDS011;9100;48.700;9.316;2022-12-07T02:43:33;7.1;;;6.4;;
17949;SDS011;9100;48.700;9.316;2022-12-07T02:44:32;7.1;;;6.4;;
17949;SDS011;9100;48.700;9.316;2022-12-07T02:45:32;7.1;;;6.4;;
17949;SDS011;9100;48.700;9.316;2022-12-07T02:45:43;10.2;;;6.8;;
17949;SDS011;9100;48.700;9.316;2022-12-07T02:46:33;10.2;;;6.8;;
17949;SDS011;9100;48.700;9.316;2022-12-07T02:47:32;10.2;;;6.8;;
17949;SDS011;9100;48.700;9.316;2022-12-07T02:48:32;10.2;;;6.8;;
17949;SDS011;9100;48.700;9.316;2022-12-07T02:49:32;10.2;;;6.8;;
17949;SDS011;9100;48.700;9.316;2022-12-07T02:50:32;10.2;;;6.8;;
17949;SDS011;9100;48.700;9.316;2022-12-07T02:50:44;7.3;;;6.6;;
17949;SDS011;9100;48.700;9.316;2022-12-07T02:51:32;7.3;;;6.6;;
17949;SDS011;9100;48.700;9.316;2022-12-07T02:52:32;7.3;;;6.6;;
17949;SDS011;9100;48.700;9.316;2022-12-07T02:53:33;7.3;;;6.6;;
17949;SDS011;9100;48.700;9.316;2022-12-07T02:54:32;7.3;;;6.6;;
17949;SDS011;9100;48.700;9.316;2022-12-07T02:55:34;7.3;;;6.6;;
17949;SDS011;9100;48.700;9.316;2022-12-07T02:55:43;7.9;;;6.6;;
17949;SDS011;9100;48.700;9.316;2022-12-07T02:56:34;7.9;;;6.6;;
17949;SDS011;9100;48.700;9.316;2022-12-07T02:57:36;7.9;;;6.6;;
17949;SDS011;9100;48.700;9.316;2022-12-07T02:58:34;7.9;;;6.6;;
17949;SDS011;9100;48.700;9.316;2022-12-07T02:59:34;7.9;;;6.6;;
17949;SDS011;9100;48.700;9.316;2022-12-07T03:00:32;7.9;;;6.6;;
17949;SDS011;9100;48.700;9.316;2022-12-07T03:00:44;9.9;;;6.8;;
17949;SDS011;9100;48.700;9.316;2022-12-07T03:01:33;9.9;;;6.8;;
17949;SDS011;9100;48.700;9.316;2022-12-07T03:02:35;9.9;;;6.8;;
17949;SDS011;9100;48.700;9.316;2022-12-07T03:03:32;9.9;;;6.8;;
17949;SDS011;9100;48.700;9.316;2022-12-07T03:04:34;9.9;;;6.8;;
17949;SDS011;9100;48.700;9.316;2022-12-07T03:05:36;9.9;;;6.8;;
17949;SDS011;9100;48.700;9.316;2022-12-07T03:05:46;8.6;;;7;;
17949;SDS011;9100;48.700;9.316;2022-12-07T03:06:32;8.6;;;7;;
17949;SDS011;9100;48.700;9.316;2022-12-07T03:07:33;8.6;;;7;;
17949;SDS011;9100;48.700;9.316;2022-12-07T03:08:34;8.6;;;7;;
17949;SDS011;9100;48.700;9.316;2022-12-07T03:09:33;8.6;;;7;;
17949;SDS011;9100;48.700;9.316;2022-12-07T03:10:34;8.6;;;7;;
17949;SDS011;9100;48.700;9.316;2022-12-07T03:10:45;7;;;6.3;;
17949;SDS011;9100;48.700;9.316;2022-12-07T03:11:33;7;;;6.3;;
17949;SDS011;9100;48.700;9.316;2022-12-07T03:12:34;7;;;6.3;;
17949;SDS011;9100;48.700;9.316;2022-12-07T03:13:33;7;;;6.3;;
17949;SDS011;9100;48.700;9.316;2022-12-07T03:14:33;7;;;6.3;;
17949;SDS011;9100;48.700;9.316;2022-12-07T03:15:33;7;;;6.3;;
17949;SDS011;9100;48.700;9.316;2022-12-07T03:15:45;7.3;;;6.7;;
17949;SDS011;9100;48.700;9.316;2022-12-07T03:16:33;7.3;;;6.7;;
17949;SDS011;9100;48.700;9.316;2022-12-07T03:17:32;7.3;;;6.7;;
17949;SDS011;9100;48.700;9.316;2022-12-07T03:18:33;7.3;;;6.7;;
17949;SDS011;9100;48.700;9.316;2022-12-07T03:19:32;7.3;;;6.7;;
17949;SDS011;9100;48.700;9.316;2022-12-07T03:20:32;7.3;;;6.7;;
17949;SDS011;9100;48.700;9.316;2022-12-07T03:20:43;7.8;;;6.7;;
17949;SDS011;9100;48.700;9.316;2022-12-07T03:21:34;7.8;;;6.7;;
17949;SDS011;9100;48.700;9.316;2022-12-07T03:22:32;7.8;;;6.7;;
17949;SDS011;9100;48.700;9.316;2022-12-07T03:23:32;7.8;;;6.7;;
17949;SDS011;9100;48.700;9.316;2022-12-07T03:24:33;7.8;;;6.7;;
17949;SDS011;9100;48.700;9.316;2022-12-07T03:25:32;7.8;;;6.7;;
17949;SDS011;9100;48.700;9.316;2022-12-07T03:25:44;7.5;;;6.8;;
17949;SDS011;9100;48.700;9.316;2022-12-07T03:26:34;7.5;;;6.8;;
17949;SDS011;9100;48.700;9.316;2022-12-07T03:27:32;7.5;;;6.8;;
17949;SDS011;9100;48.700;9.316;2022-12-07T03:28:33;7.5;;;6.8;;
17949;SDS011;9100;48.700;9.316;2022-12-07T03:29:33;7.5;;;6.8;;
17949;SDS011;9100;48.700;9.316;2022-12-07T03:30:33;7.5;;;6.8;;
17949;SDS011;9100;48.700;9.316;2022-12-07T03:30:44;7.2;;;6.5;;
17949;SDS011;9100;48.700;9.316;2022-12-07T03:31:32;7.2;;;6.5;;
17949;SDS011;9100;48.700;9.316;2022-12-07T03:32:33;7.2;;;6.5;;
17949;SDS011;9100;48.700;9.316;2022-12-07T03:33:32;7.2;;;6.5;;
17949;SDS011;9100;48.700;9.316;2022-12-07T03:34:32;7.2;;;6.5;;
17949;SDS011;9100;48.700;9.316;2022-12-07T03:35:33;7.2;;;6.5;;
17949;SDS011;9100;48.700;9.316;2022-12-07T03:35:43;7.6;;;6.9;;
17949;SDS011;9100;48.700;9.316;2022-12-07T03:36:34;7.6;;;6.9;;
17949;SDS011;9100;48.700;9.316;2022-12-07T03:37:33;7.6;;;6.9;;
17949;SDS011;9100;48.700;9.316;2022-12-07T03:38:32;7.6;;;6.9;;
17949;SDS011;9100;48.700;9.316;2022-12-07T03:39:33;7.6;;;6.9;;
17949;SDS011;9100;48.700;9.316;2022-12-07T03:40:33;7.6;;;6.9;;
17949;SDS011;9100;48.700;9.316;2022-12-07T03:40:43;9.3;;;7.3;;
17949;SDS011;9100;48.700;9.316;2022-12-07T03:41:33;9.3;;;7.3;;
17949;SDS011;9100;48.700;9.316;2022-12-07T03:42:32;9.3;;;7.3;;
17949;SDS011;9100;48.700;9.316;2022-12-07T03:43:32;9.3;;;7.3;;
17949;SDS011;9100;48.700;9.316;2022-12-07T03:44:32;9.3;;;7.3;;
17949;SDS011;9100;48.700;9.316;2022-12-07T03:45:33;9.3;;;7.3;;
17949;SDS011;9100;48.700;9.316;2022-12-07T03:45:43;8.2;;;7.4;;
17949;SDS011;9100;48.700;9.316;2022-12-07T03:46:34;8.2;;;7.4;;
17949;SDS011;9100;48.700;9.316;2022-12-07T03:47:33;8.2;;;7.4;;
17949;SDS011;9100;48.700;9.316;2022-12-07T03:48:33;8.2;;;7.4;;
17949;SDS011;9100;48.700;9.316;2022-12-07T03:49:32;8.2;;;7.4;;
17949;SDS011;9100;48.700;9.316;2022-12-07T03:50:34;8.2;;;7.4;;
17949;SDS011;9100;48.700;9.316;2022-12-07T03:50:43;7.1;;;6.4;;
17949;SDS011;9100;48.700;9.316;2022-12-07T03:51:33;7.1;;;6.4;;
17949;SDS011;9100;48.700;9.316;2022-12-07T03:52:33;7.1;;;6.4;;
17949;SDS011;9100;48.700;9.316;2022-12-07T03:53:33;7.1;;;6.4;;
17949;SDS011;9100;48.700;9.316;2022-12-07T03:54:33;7.1;;;6.4;;
17949;SDS011;9100;48.700;9.316;2022-12-07T03:55:32;7.1;;;6.4;;
17949;SDS011;9100;48.700;9.316;2022-12-07T03:55:43;7.3;;;6.6;;
17949;SDS011;9100;48.700;9.316;2022-12-07T03:56:32;7.3;;;6.6;;
17949;SDS011;9100;48.700;9.316;2022-12-07T03:57:32;7.3;;;6.6;;
17949;SDS011;9100;48.700;9.316;2022-12-07T03:58:32;7.3;;;6.6;;
17949;SDS011;9100;48.700;9.316;2022-12-07T03:59:32;7.3;;;6.6;;
17949;SDS011;9100;48.700;9.316;2022-12-07T04:00:32;7.3;;;6.6;;
17949;SDS011;9100;48.700;9.316;2022-12-07T04:00:43;9;;;7.4;;
17949;SDS011;9100;48.700;9.316;2022-12-07T04:01:32;9;;;7.4;;
17949;SDS011;9100;48.700;9.316;2022-12-07T04:02:32;9;;;7.4;;
17949;SDS011;9100;48.700;9.316;2022-12-07T04:03:32;9;;;7.4;;
17949;SDS011;9100;48.700;9.316;2022-12-07T04:04:32;9;;;7.4;;
17949;SDS011;9100;48.700;9.316;2022-12-07T04:05:32;9;;;7.4;;
17949;SDS011;9100;48.700;9.316;2022-12-07T04:05:43;7.2;;;6.6;;
17949;SDS011;9100;48.700;9.316;2022-12-07T04:06:32;7.2;;;6.6;;
17949;SDS011;9100;48.700;9.316;2022-12-07T04:07:32;7.2;;;6.6;;
17949;SDS011;9100;48.700;9.316;2022-12-07T04:08:32;7.2;;;6.6;;
17949;SDS011;9100;48.700;9.316;2022-12-07T04:09:32;7.2;;;6.6;;
17949;SDS011;9100;48.700;9.316;2022-12-07T04:10:32;7.2;;;6.6;;
17949;SDS011;9100;48.700;9.316;2022-12-07T04:10:43;7.1;;;6.5;;
17949;SDS011;9100;48.700;9.316;2022-12-07T04:11:32;7.1;;;6.5;;
17949;SDS011;9100;48.700;9.316;2022-12-07T04:12:32;7.1;;;6.5;;
17949;SDS011;9100;48.700;9.316;2022-12-07T04:13:32;7.1;;;6.5;;
17949;SDS011;9100;48.700;9.316;2022-12-07T04:14:32;7.1;;;6.5;;
17949;SDS011;9100;48.700;9.316;2022-12-07T04:15:32;7.1;;;6.5;;
17949;SDS011;9100;48.700;9.316;2022-12-07T04:15:43;7.1;;;6.5;;
17949;SDS011;9100;48.700;9.316;2022-12-07T04:16:32;7.1;;;6.5;;
17949;SDS011;9100;48.700;9.316;2022-12-07T04:17:32;7.1;;;6.5;;
17949;SDS011;9100;48.700;9.316;2022-12-07T04:18:32;7.1;;;6.5;;
17949;SDS011;9100;48.700;9.316;2022-12-07T04:19:32;7.1;;;6.5;;
17949;SDS011;9100;48.700;9.316;2022-12-07T04:20:32;7.1;;;6.5;;
17949;SDS011;9100;48.700;9.316;2022-12-07T04:20:43;7.8;;;6.5;;
17949;SDS011;9100;48.700;9.316;2022-12-07T04:21:32;7.8;;;6.5;;
17949;SDS011;9100;48.700;9.316;2022-12-07T04:22:32;7.8;;;6.5;;
17949;SDS011;9100;48.700;9.316;2022-12-07T04:23:32;7.8;;;6.5;;
17949;SDS011;9100;48.700;9.316;2022-12-07T04:24:32;7.8;;;6.5;;
17949;SDS011;9100;48.700;9.316;2022-12-07T04:25:32;7.8;;;6.5;;
17949;SDS011;9100;48.700;9.316;2022-12-07T04:25:43;7.6;;;6.9;;
17949;SDS011;9100;48.700;9.316;2022-12-07T04:26:32;7.6;;;6.9;;
17949;SDS011;9100;48.700;9.316;2022-12-07T04:27:32;7.6;;;6.9;;
17949;SDS011;9100;48.700;9.316;2022-12-07T04:28:32;7.6;;;6.9;;
17949;SDS011;9100;48.700;9.316;2022-12-07T04:29:32;7.6;;;6.9;;
17949;SDS011;9100;48.700;9.316;2022-12-07T04:30:32;7.6;;;6.9;;
17949;SDS011;9100;48.700;9.316;2022-12-07T04:30:43;7.7;;;6.9;;
17949;SDS011;9100;48.700;9.316;2022-12-07T04:31:32;7.7;;;6.9;;
17949;SDS011;9100;48.700;9.316;2022-12-07T04:32:32;7.7;;;6.9;;
17949;SDS011;9100;48.700;9.316;2022-12-07T04:33:32;7.7;;;6.9;;
17949;SDS011;9100;48.700;9.316;2022-12-07T04:34:32;7.7;;;6.9;;
17949;SDS011;9100;48.700;9.316;2022-12-07T04:35:32;7.7;;;6.9;;
17949;SDS011;9100;48.700;9.316;2022-12-07T04:35:43;7.8;;;7;;
17949;SDS011;9100;48.700;9.316;2022-12-07T04:36:32;7.8;;;7;;
17949;SDS011;9100;48.700;9.316;2022-12-07T04:37:32;7.8;;;7;;
17949;SDS011;9100;48.700;9.316;2022-12-07T04:38:32;7.8;;;7;;
17949;SDS011;9100;48.700;9.316;2022-12-07T04:39:33;7.8;;;7;;
17949;SDS011;9100;48.700;9.316;2022-12-07T04:40:32;7.8;;;7;;
17949;SDS011;9100;48.700;9.316;2022-12-07T04:40:43;8.1;;;6.6;;
17949;SDS011;9100;48.700;9.316;2022-12-07T04:41:32;8.1;;;6.6;;
17949;SDS011;9100;48.700;9.316;2022-12-07T04:42:32;8.1;;;6.6;;
17949;SDS011;9100;48.700;9.316;2022-12-07T04:43:32;8.1;;;6.6;;
17949;SDS011;9100;48.700;9.316;2022-12-07T04:44:32;8.1;;;6.6;;
17949;SDS011;9100;48.700;9.316;2022-12-07T04:45:32;8.1;;;6.6;;
17949;SDS011;9100;48.700;9.316;2022-12-07T04:45:45;7.9;;;6.5;;
17949;SDS011;9100;48.700;9.316;2022-12-07T04:46:32;7.9;;;6.5;;
17949;SDS011;9100;48.700;9.316;2022-12-07T04:47:32;7.9;;;6.5;;
17949;SDS011;9100;48.700;9.316;2022-12-07T04:48:32;7.9;;;6.5;;
17949;SDS011;9100;48.700;9.316;2022-12-07T04:49:32;7.9;;;6.5;;
17949;SDS011;9100;48.700;9.316;2022-12-07T04:50:32;7.9;;;6.5;;
17949;SDS011;9100;48.700;9.316;2022-12-07T04:50:43;7.8;;;6.5;;
17949;SDS011;9100;48.700;9.316;2022-12-07T04:51:32;7.8;;;6.5;;
17949;SDS011;9100;48.700;9.316;2022-12-07T04:52:32;7.8;;;6.5;;
17949;SDS011;9100;48.700;9.316;2022-12-07T04:53:32;7.8;;;6.5;;
17949;SDS011;9100;48.700;9.316;2022-12-07T04:54:32;7.8;;;6.5;;
17949;SDS011;9100;48.700;9.316;2022-12-07T04:55:32;7.8;;;6.5;;
17949;SDS011;9100;48.700;9.316;2022-12-07T04:55:43;7.6;;;6.2;;
17949;SDS011;9100;48.700;9.316;2022-12-07T04:56:32;7.6;;;6.2;;
17949;SDS011;9100;48.700;9.316;2022-12-07T04:57:32;7.6;;;6.2;;
17949;SDS011;9100;48.700;9.316;2022-12-07T04:58:32;7.6;;;6.2;;
17949;SDS011;9100;48.700;9.316;2022-12-07T04:59:32;7.6;;;6.2;;
17949;SDS011;9100;48.700;9.316;2022-12-07T05:00:32;7.6;;;6.2;;
17949;SDS011;9100;48.700;9.316;2022-12-07T05:00:43;7.4;;;6.6;;
17949;SDS011;9100;48.700;9.316;2022-12-07T05:01:32;7.4;;;6.6;;
17949;SDS011;9100;48.700;9.316;2022-12-07T05:02:32;7.4;;;6.6;;
17949;SDS011;9100;48.700;9.316;2022-12-07T05:03:32;7.4;;;6.6;;
17949;SDS011;9100;48.700;9.316;2022-12-07T05:04:32;7.4;;;6.6;;
17949;SDS011;9100;48.700;9.316;2022-12-07T05:05:32;7.4;;;6.6;;
17949;SDS011;9100;48.700;9.316;2022-12-07T05:05:43;6.7;;;5.9;;
17949;SDS011;9100;48.700;9.316;2022-12-07T05:06:32;6.7;;;5.9;;
17949;SDS011;9100;48.700;9.316;2022-12-07T05:07:32;6.7;;;5.9;;
17949;SDS011;9100;48.700;9.316;2022-12-07T05:08:32;6.7;;;5.9;;
17949;SDS011;9100;48.700;9.316;2022-12-07T05:09:32;6.7;;;5.9;;
17949;SDS011;9100;48.700;9.316;2022-12-07T05:10:32;6.7;;;5.9;;
17949;SDS011;9100;48.700;9.316;2022-12-07T05:10:43;5.8;;;5.3;;
17949;SDS011;9100;48.700;9.316;2022-12-07T05:11:32;5.8;;;5.3;;
17949;SDS011;9100;48.700;9.316;2022-12-07T05:12:32;5.8;;;5.3;;
17949;SDS011;9100;48.700;9.316;2022-12-07T05:13:32;5.8;;;5.3;;
17949;SDS011;9100;48.700;9.316;2022-12-07T05:14:32;5.8;;;5.3;;
17949;SDS011;9100;48.700;9.316;2022-12-07T05:15:32;5.8;;;5.3;;
17949;SDS011;9100;48.700;9.316;2022-12-07T05:15:43;5.6;;;5;;